sensor_id;sensor_type;location;lat;lon;timestamp;pressure;altitude;pressure_sealevel;temperature;humidity
75699;BME280;64313;51.018;13.742;2023-04-16T00:02:37;99515.84;;;8.33;81.16
75699;BME280;64313;51.018;13.742;2023-04-16T00:05:02;99518.50;;;8.33;80.82
75699;BME280;64313;51.018;13.742;2023-04-16T00:07:28;99514.38;;;8.30;80.91
75699;BME280;64313;51.018;13.742;2023-04-16T00:09:53;99521.31;;;8.24;81.22
75699;BME280;64313;51.018;13.742;2023-04-16T00:12:18;99523.69;;;8.19;81.24
75699;BME280;64313;51.018;13.742;2023-04-16T00:14:44;99522.25;;;8.17;81.36
75699;BME280;64313;51.018;13.742;2023-04-16T00:17:09;99526.94;;;8.15;80.97
75699;BME280;64313;51.018;13.742;2023-04-16T00:19:34;99526.94;;;8.15;80.90
75699;BME280;64313;51.018;13.742;2023-04-16T00:22:00;99524.81;;;8.10;80.94
75699;BME280;64313;51.018;13.742;2023-04-16T00:24:25;99532.00;;;8.10;80.75
75699;BME280;64313;51.018;13.742;2023-04-16T00:26:50;99535.84;;;8.07;81.07
75699;BME280;64313;51.018;13.742;2023-04-16T00:29:16;99534.19;;;8.06;81.17
75699;BME280;64313;51.018;13.742;2023-04-16T00:31:41;99532.72;;;8.03;81.27
75699;BME280;64313;51.018;13.742;2023-04-16T00:34:06;99529.63;;;8.00;81.23
75699;BME280;64313;51.018;13.742;2023-04-16T00:36:32;99544.41;;;8.02;81.13
75699;BME280;64313;51.018;13.742;2023-04-16T00:38:57;99541.28;;;7.99;81.41
75699;BME280;64313;51.018;13.742;2023-04-16T00:41:22;99542.94;;;8.00;81.42
75699;BME280;64313;51.018;13.742;2023-04-16T00:43:48;99541.09;;;8.00;81.07
75699;BME280;64313;51.018;13.742;2023-04-16T00:46:15;99534.31;;;7.98;81.40
75699;BME280;64313;51.018;13.742;2023-04-16T00:48:42;99548.81;;;7.95;81.46
75699;BME280;64313;51.018;13.742;2023-04-16T00:51:09;99541.03;;;7.94;81.32
75699;BME280;64313;51.018;13.742;2023-04-16T00:53:35;99537.72;;;7.92;81.27
75699;BME280;64313;51.018;13.742;2023-04-16T00:56:05;99538.53;;;7.92;80.99
75699;BME280;64313;51.018;13.742;2023-04-16T00:58:32;99541.38;;;7.91;80.82
75699;BME280;64313;51.018;13.742;2023-04-16T01:00:58;99537.25;;;7.88;80.57
75699;BME280;64313;51.018;13.742;2023-04-16T01:03:33;99537.47;;;7.87;80.50
75699;BME280;64313;51.018;13.742;2023-04-16T01:06:01;99537.81;;;7.84;80.58
75699;BME280;64313;51.018;13.742;2023-04-16T01:08:27;99543.88;;;7.77;80.53
75699;BME280;64313;51.018;13.742;2023-04-16T01:10:52;99540.94;;;7.72;80.76
75699;BME280;64313;51.018;13.742;2023-04-16T01:13:17;99542.31;;;7.68;80.65
75699;BME280;64313;51.018;13.742;2023-04-16T01:15:43;99546.19;;;7.66;80.62
75699;BME280;64313;51.018;13.742;2023-04-16T01:18:18;99544.53;;;7.65;80.39
75699;BME280;64313;51.018;13.742;2023-04-16T01:20:46;99541.44;;;7.61;80.22
75699;BME280;64313;51.018;13.742;2023-04-16T01:23:12;99547.31;;;7.56;80.18
75699;BME280;64313;51.018;13.742;2023-04-16T01:25:37;99544.16;;;7.53;80.26
75699;BME280;64313;51.018;13.742;2023-04-16T01:28:03;99544.38;;;7.51;80.41
75699;BME280;64313;51.018;13.742;2023-04-16T01:30:28;99553.53;;;7.49;80.72
75699;BME280;64313;51.018;13.742;2023-04-16T01:33:03;99545.09;;;7.45;80.62
75699;BME280;64313;51.018;13.742;2023-04-16T01:35:30;99546.47;;;7.41;79.88
75699;BME280;64313;51.018;13.742;2023-04-16T01:37:55;99555.81;;;7.37;80.61
75699;BME280;64313;51.018;13.742;2023-04-16T01:40:20;99556.19;;;7.34;80.69
75699;BME280;64313;51.018;13.742;2023-04-16T01:42:46;99558.84;;;7.34;80.57
75699;BME280;64313;51.018;13.742;2023-04-16T01:45:11;99565.16;;;7.33;80.83
75699;BME280;64313;51.018;13.742;2023-04-16T01:47:37;99568.38;;;7.28;80.84
75699;BME280;64313;51.018;13.742;2023-04-16T01:50:03;99561.41;;;7.27;80.57
75699;BME280;64313;51.018;13.742;2023-04-16T01:52:29;99562.22;;;7.28;80.50
75699;BME280;64313;51.018;13.742;2023-04-16T01:54:55;99562.41;;;7.26;80.52
75699;BME280;64313;51.018;13.742;2023-04-16T01:57:20;99573.22;;;7.25;80.38
75699;BME280;64313;51.018;13.742;2023-04-16T01:59:46;99562.31;;;7.20;79.80
75699;BME280;64313;51.018;13.742;2023-04-16T02:02:12;99564.97;;;7.20;79.60
75699;BME280;64313;51.018;13.742;2023-04-16T02:04:39;99556.97;;;7.20;79.72
75699;BME280;64313;51.018;13.742;2023-04-16T02:07:06;99558.81;;;7.19;79.73
75699;BME280;64313;51.018;13.742;2023-04-16T02:09:36;99561.84;;;7.16;79.76
75699;BME280;64313;51.018;13.742;2023-04-16T02:12:05;99560.38;;;7.13;79.75
75699;BME280;64313;51.018;13.742;2023-04-16T02:14:31;99566.88;;;7.11;79.75
75699;BME280;64313;51.018;13.742;2023-04-16T02:16:57;99572.38;;;7.09;79.80
75699;BME280;64313;51.018;13.742;2023-04-16T02:19:34;99566.59;;;7.06;79.68
75699;BME280;64313;51.018;13.742;2023-04-16T02:22:00;99570.44;;;7.03;79.56
75699;BME280;64313;51.018;13.742;2023-04-16T02:24:26;99567.94;;;7.02;79.80
75699;BME280;64313;51.018;13.742;2023-04-16T02:26:51;99576.09;;;7.00;79.75
75699;BME280;64313;51.018;13.742;2023-04-16T02:29:17;99571.97;;;6.98;79.69
75699;BME280;64313;51.018;13.742;2023-04-16T02:31:48;99576.38;;;6.90;79.69
75699;BME280;64313;51.018;13.742;2023-04-16T02:34:14;99573.06;;;6.88;79.56
75699;BME280;64313;51.018;13.742;2023-04-16T02:36:40;99583.19;;;6.85;79.59
75699;BME280;64313;51.018;13.742;2023-04-16T02:39:05;99580.75;;;6.83;79.67
75699;BME280;64313;51.018;13.742;2023-04-16T02:41:31;99581.91;;;6.81;79.59
75699;BME280;64313;51.018;13.742;2023-04-16T02:43:56;99585.94;;;6.77;79.73
75699;BME280;64313;51.018;13.742;2023-04-16T02:46:21;99599.72;;;6.72;79.88
75699;BME280;64313;51.018;13.742;2023-04-16T02:48:48;99594.41;;;6.72;79.83
75699;BME280;64313;51.018;13.742;2023-04-16T02:51:13;99596.91;;;6.74;79.70
75699;BME280;64313;51.018;13.742;2023-04-16T02:53:39;99594.78;;;6.69;79.56
75699;BME280;64313;51.018;13.742;2023-04-16T02:56:04;99586.97;;;6.67;79.64
75699;BME280;64313;51.018;13.742;2023-04-16T02:58:30;99592.66;;;6.64;79.48
75699;BME280;64313;51.018;13.742;2023-04-16T03:00:55;99597.31;;;6.62;79.57
75699;BME280;64313;51.018;13.742;2023-04-16T03:03:22;99597.50;;;6.61;79.26
75699;BME280;64313;51.018;13.742;2023-04-16T03:05:47;99609.75;;;6.62;78.80
75699;BME280;64313;51.018;13.742;2023-04-16T03:08:14;99599.34;;;6.60;79.01
75699;BME280;64313;51.018;13.742;2023-04-16T03:10:39;99597.88;;;6.58;78.20
75699;BME280;64313;51.018;13.742;2023-04-16T03:13:05;99598.19;;;6.55;77.89
75699;BME280;64313;51.018;13.742;2023-04-16T03:15:30;99599.72;;;6.49;78.10
75699;BME280;64313;51.018;13.742;2023-04-16T03:17:56;99598.91;;;6.48;78.49
75699;BME280;64313;51.018;13.742;2023-04-16T03:20:22;99601.41;;;6.42;78.64
75699;BME280;64313;51.018;13.742;2023-04-16T03:22:47;99611.38;;;6.40;78.74
75699;BME280;64313;51.018;13.742;2023-04-16T03:25:13;99607.25;;;6.37;78.63
75699;BME280;64313;51.018;13.742;2023-04-16T03:27:38;99613.75;;;6.35;78.37
75699;BME280;64313;51.018;13.742;2023-04-16T03:30:07;99623.06;;;6.31;78.63
75699;BME280;64313;51.018;13.742;2023-04-16T03:32:35;99626.72;;;6.29;78.63
75699;BME280;64313;51.018;13.742;2023-04-16T03:35:03;99630.88;;;6.24;79.15
75699;BME280;64313;51.018;13.742;2023-04-16T03:37:29;99629.41;;;6.21;78.92
75699;BME280;64313;51.018;13.742;2023-04-16T03:39:55;99633.75;;;6.22;79.06
75699;BME280;64313;51.018;13.742;2023-04-16T03:42:20;99632.56;;;6.17;78.85
75699;BME280;64313;51.018;13.742;2023-04-16T03:44:45;99641.06;;;6.12;79.25
75699;BME280;64313;51.018;13.742;2023-04-16T03:47:13;99632.47;;;6.10;78.92
75699;BME280;64313;51.018;13.742;2023-04-16T03:49:38;99639.06;;;6.14;78.86
75699;BME280;64313;51.018;13.742;2023-04-16T03:52:04;99638.59;;;6.11;78.83
75699;BME280;64313;51.018;13.742;2023-04-16T03:54:30;99641.75;;;6.06;78.72
75699;BME280;64313;51.018;13.742;2023-04-16T03:57:06;99646.59;;;6.02;78.26
75699;BME280;64313;51.018;13.742;2023-04-16T03:59:31;99647.41;;;6.03;78.76
75699;BME280;64313;51.018;13.742;2023-04-16T04:01:58;99654.88;;;5.99;79.02
75699;BME280;64313;51.018;13.742;2023-04-16T04:04:24;99656.69;;;5.99;79.13
75699;BME280;64313;51.018;13.742;2023-04-16T04:06:49;99661.84;;;6.00;79.17
75699;BME280;64313;51.018;13.742;2023-04-16T04:09:16;99669.13;;;5.98;78.67
75699;BME280;64313;51.018;13.742;2023-04-16T04:11:41;99672.97;;;5.96;78.24
75699;BME280;64313;51.018;13.742;2023-04-16T04:14:07;99667.16;;;5.92;78.46
75699;BME280;64313;51.018;13.742;2023-04-16T04:16:33;99672.97;;;5.88;78.47
75699;BME280;64313;51.018;13.742;2023-04-16T04:18:58;99673.28;;;5.84;78.65
75699;BME280;64313;51.018;13.742;2023-04-16T04:21:26;99671.63;;;5.83;78.53
75699;BME280;64313;51.018;13.742;2023-04-16T04:23:51;99675.94;;;5.84;78.91
75699;BME280;64313;51.018;13.742;2023-04-16T04:26:16;99670.66;;;5.76;78.87
75699;BME280;64313;51.018;13.742;2023-04-16T04:28:42;99671.81;;;5.74;78.88
75699;BME280;64313;51.018;13.742;2023-04-16T04:31:07;99673.66;;;5.73;78.87
75699;BME280;64313;51.018;13.742;2023-04-16T04:33:33;99673.81;;;5.72;78.99
75699;BME280;64313;51.018;13.742;2023-04-16T04:35:58;99674.47;;;5.74;79.15
75699;BME280;64313;51.018;13.742;2023-04-16T04:38:24;99682.44;;;5.74;79.21
75699;BME280;64313;51.018;13.742;2023-04-16T04:40:51;99676.28;;;5.73;79.12
75699;BME280;64313;51.018;13.742;2023-04-16T04:43:21;99683.25;;;5.74;78.94
75699;BME280;64313;51.018;13.742;2023-04-16T04:45:47;99677.94;;;5.74;78.94
75699;BME280;64313;51.018;13.742;2023-04-16T04:48:13;99686.25;;;5.71;79.08
75699;BME280;64313;51.018;13.742;2023-04-16T04:50:39;99680.94;;;5.71;79.13
75699;BME280;64313;51.018;13.742;2023-04-16T04:53:06;99684.75;;;5.69;79.20
75699;BME280;64313;51.018;13.742;2023-04-16T04:55:37;99683.78;;;5.70;79.56
75699;BME280;64313;51.018;13.742;2023-04-16T04:58:04;99687.41;;;5.69;80.06
75699;BME280;64313;51.018;13.742;2023-04-16T05:00:30;99688.22;;;5.69;80.05
75699;BME280;64313;51.018;13.742;2023-04-16T05:03:01;99688.88;;;5.71;79.75
75699;BME280;64313;51.018;13.742;2023-04-16T05:05:26;99685.06;;;5.74;79.63
75699;BME280;64313;51.018;13.742;2023-04-16T05:07:52;99692.53;;;5.78;79.25
75699;BME280;64313;51.018;13.742;2023-04-16T05:10:17;99694.16;;;5.79;78.99
75699;BME280;64313;51.018;13.742;2023-04-16T05:12:42;99693.88;;;5.82;79.39
75699;BME280;64313;51.018;13.742;2023-04-16T05:15:08;99694.50;;;5.84;79.61
75699;BME280;64313;51.018;13.742;2023-04-16T05:17:33;99697.81;;;5.86;79.60
75699;BME280;64313;51.018;13.742;2023-04-16T05:19:59;99705.78;;;5.86;80.08
75699;BME280;64313;51.018;13.742;2023-04-16T05:22:24;99713.56;;;5.88;79.76
75699;BME280;64313;51.018;13.742;2023-04-16T05:24:49;99706.44;;;5.89;80.03
75699;BME280;64313;51.018;13.742;2023-04-16T05:27:15;99712.41;;;5.91;79.84
75699;BME280;64313;51.018;13.742;2023-04-16T05:29:40;99708.75;;;5.92;79.49
75699;BME280;64313;51.018;13.742;2023-04-16T05:32:05;99720.03;;;5.94;79.23
75699;BME280;64313;51.018;13.742;2023-04-16T05:34:31;99721.84;;;5.93;79.35
75699;BME280;64313;51.018;13.742;2023-04-16T05:36:56;99721.72;;;5.95;79.34
75699;BME280;64313;51.018;13.742;2023-04-16T05:39:21;99726.19;;;5.94;79.66
75699;BME280;64313;51.018;13.742;2023-04-16T05:41:47;99724.38;;;5.95;79.21
75699;BME280;64313;51.018;13.742;2023-04-16T05:44:12;99729.69;;;5.95;79.33
75699;BME280;64313;51.018;13.742;2023-04-16T05:46:39;99729.69;;;5.95;79.24
75699;BME280;64313;51.018;13.742;2023-04-16T05:49:04;99733.81;;;5.97;79.28
75699;BME280;64313;51.018;13.742;2023-04-16T05:51:29;99732.00;;;5.98;79.38
75699;BME280;64313;51.018;13.742;2023-04-16T05:53:56;99738.94;;;5.99;79.57
75699;BME280;64313;51.018;13.742;2023-04-16T05:56:21;99737.63;;;6.03;79.45
75699;BME280;64313;51.018;13.742;2023-04-16T05:58:47;99736.94;;;6.01;79.66
75699;BME280;64313;51.018;13.742;2023-04-16T06:01:12;99735.78;;;6.03;79.40
75699;BME280;64313;51.018;13.742;2023-04-16T06:03:38;99749.88;;;6.04;79.54
75699;BME280;64313;51.018;13.742;2023-04-16T06:06:03;99756.66;;;6.06;79.52
75699;BME280;64313;51.018;13.742;2023-04-16T06:08:28;99753.50;;;6.11;79.69
75699;BME280;64313;51.018;13.742;2023-04-16T06:10:53;99754.34;;;6.12;80.02
75699;BME280;64313;51.018;13.742;2023-04-16T06:13:19;99757.16;;;6.02;80.46
75699;BME280;64313;51.018;13.742;2023-04-16T06:15:44;99754.19;;;6.05;80.52
75699;BME280;64313;51.018;13.742;2023-04-16T06:18:10;99759.16;;;6.08;80.71
75699;BME280;64313;51.018;13.742;2023-04-16T06:20:35;99762.63;;;6.09;81.03
75699;BME280;64313;51.018;13.742;2023-04-16T06:23:02;99761.13;;;6.14;80.54
75699;BME280;64313;51.018;13.742;2023-04-16T06:25:27;99765.28;;;6.17;80.68
75699;BME280;64313;51.018;13.742;2023-04-16T06:27:52;99762.13;;;6.21;80.38
75699;BME280;64313;51.018;13.742;2023-04-16T06:30:17;99766.25;;;6.24;80.43
75699;BME280;64313;51.018;13.742;2023-04-16T06:32:44;99767.38;;;6.29;80.67
75699;BME280;64313;51.018;13.742;2023-04-16T06:35:10;99776.34;;;6.37;80.47
75699;BME280;64313;51.018;13.742;2023-04-16T06:37:36;99777.47;;;6.42;80.20
75699;BME280;64313;51.018;13.742;2023-04-16T06:40:01;99784.78;;;6.48;80.35
75699;BME280;64313;51.018;13.742;2023-04-16T06:42:28;99783.25;;;6.54;80.33
75699;BME280;64313;51.018;13.742;2023-04-16T06:44:53;99777.59;;;6.57;80.58
75699;BME280;64313;51.018;13.742;2023-04-16T06:47:18;99777.28;;;6.60;80.19
75699;BME280;64313;51.018;13.742;2023-04-16T06:49:43;99777.59;;;6.65;80.77
75699;BME280;64313;51.018;13.742;2023-04-16T06:52:18;99782.19;;;6.71;80.38
75699;BME280;64313;51.018;13.742;2023-04-16T06:55:06;99775.53;;;6.76;80.55
75699;BME280;64313;51.018;13.742;2023-04-16T06:57:34;99777.66;;;6.80;79.74
75699;BME280;64313;51.018;13.742;2023-04-16T07:00:00;99771.66;;;6.86;79.11
75699;BME280;64313;51.018;13.742;2023-04-16T07:02:25;99775.81;;;6.89;80.10
75699;BME280;64313;51.018;13.742;2023-04-16T07:04:50;99770.31;;;6.90;80.11
75699;BME280;64313;51.018;13.742;2023-04-16T07:07:16;99782.44;;;6.93;80.24
75699;BME280;64313;51.018;13.742;2023-04-16T07:09:45;99777.44;;;6.98;79.63
75699;BME280;64313;51.018;13.742;2023-04-16T07:12:10;99788.53;;;7.02;80.55
75699;BME280;64313;51.018;13.742;2023-04-16T07:14:36;99788.16;;;7.05;80.13
75699;BME280;64313;51.018;13.742;2023-04-16T07:17:01;99786.16;;;7.07;80.28
75699;BME280;64313;51.018;13.742;2023-04-16T07:19:26;99786.63;;;7.10;80.37
75699;BME280;64313;51.018;13.742;2023-04-16T07:21:54;99787.50;;;7.11;79.89
75699;BME280;64313;51.018;13.742;2023-04-16T07:24:20;99786.94;;;7.15;80.28
75699;BME280;64313;51.018;13.742;2023-04-16T07:26:45;99793.72;;;7.18;80.60
75699;BME280;64313;51.018;13.742;2023-04-16T07:29:10;99784.25;;;7.24;80.22
75699;BME280;64313;51.018;13.742;2023-04-16T07:31:36;99795.84;;;7.31;79.54
75699;BME280;64313;51.018;13.742;2023-04-16T07:34:01;99789.81;;;7.37;79.38
75699;BME280;64313;51.018;13.742;2023-04-16T07:36:26;99790.63;;;7.37;80.29
75699;BME280;64313;51.018;13.742;2023-04-16T07:38:52;99788.47;;;7.41;80.13
75699;BME280;64313;51.018;13.742;2023-04-16T07:41:17;99788.75;;;7.46;80.02
75699;BME280;64313;51.018;13.742;2023-04-16T07:43:43;99791.88;;;7.50;79.56
75699;BME280;64313;51.018;13.742;2023-04-16T07:46:08;99800.16;;;7.55;80.50
75699;BME280;64313;51.018;13.742;2023-04-16T07:48:33;99795.13;;;7.60;80.88
75699;BME280;64313;51.018;13.742;2023-04-16T07:50:58;99806.72;;;7.67;80.43
75699;BME280;64313;51.018;13.742;2023-04-16T07:53:24;99807.00;;;7.72;80.97
75699;BME280;64313;51.018;13.742;2023-04-16T07:55:50;99801.16;;;7.77;79.98
75699;BME280;64313;51.018;13.742;2023-04-16T07:58:15;99806.56;;;7.84;79.86
75699;BME280;64313;51.018;13.742;2023-04-16T08:00:40;99803.84;;;7.92;80.00
75699;BME280;64313;51.018;13.742;2023-04-16T08:03:05;99809.28;;;7.98;79.75
75699;BME280;64313;51.018;13.742;2023-04-16T08:05:31;99807.53;;;8.06;79.77
75699;BME280;64313;51.018;13.742;2023-04-16T08:07:56;99815.44;;;8.14;79.54
75699;BME280;64313;51.018;13.742;2023-04-16T08:10:21;99810.88;;;8.22;79.88
75699;BME280;64313;51.018;13.742;2023-04-16T08:12:47;99807.47;;;8.29;79.08
75699;BME280;64313;51.018;13.742;2023-04-16T08:15:12;99813.75;;;8.36;79.92
75699;BME280;64313;51.018;13.742;2023-04-16T08:17:37;99816.19;;;8.45;79.16
75699;BME280;64313;51.018;13.742;2023-04-16T08:20:04;99815.25;;;8.53;79.27
75699;BME280;64313;51.018;13.742;2023-04-16T08:22:29;99819.28;;;8.64;79.00
75699;BME280;64313;51.018;13.742;2023-04-16T08:24:55;99824.19;;;8.75;79.09
75699;BME280;64313;51.018;13.742;2023-04-16T08:27:20;99819.75;;;8.82;78.57
75699;BME280;64313;51.018;13.742;2023-04-16T08:29:46;99825.81;;;8.91;78.32
75699;BME280;64313;51.018;13.742;2023-04-16T08:32:12;99826.72;;;8.98;78.29
75699;BME280;64313;51.018;13.742;2023-04-16T08:34:37;99825.16;;;9.04;77.97
75699;BME280;64313;51.018;13.742;2023-04-16T08:37:02;99837.53;;;9.12;77.77
75699;BME280;64313;51.018;13.742;2023-04-16T08:39:28;99831.47;;;9.18;77.74
75699;BME280;64313;51.018;13.742;2023-04-16T08:41:53;99843.06;;;9.25;77.06
75699;BME280;64313;51.018;13.742;2023-04-16T08:44:20;99846.44;;;9.34;76.91
75699;BME280;64313;51.018;13.742;2023-04-16T08:46:50;99848.31;;;9.40;76.89
75699;BME280;64313;51.018;13.742;2023-04-16T08:49:18;99848.78;;;9.43;76.83
75699;BME280;64313;51.018;13.742;2023-04-16T08:51:49;99840.88;;;9.50;77.31
75699;BME280;64313;51.018;13.742;2023-04-16T08:56:44;99846.91;;;9.59;76.86
75699;BME280;64313;51.018;13.742;2023-04-16T08:59:10;99845.94;;;9.66;77.22
75699;BME280;64313;51.018;13.742;2023-04-16T09:01:36;99846.22;;;9.71;76.96
75699;BME280;64313;51.018;13.742;2023-04-16T09:04:05;99848.09;;;9.78;76.77
75699;BME280;64313;51.018;13.742;2023-04-16T09:06:32;99851.88;;;9.83;76.59
75699;BME280;64313;51.018;13.742;2023-04-16T09:08:58;99852.94;;;9.89;76.56
75699;BME280;64313;51.018;13.742;2023-04-16T09:11:24;99859.56;;;9.93;76.70
75699;BME280;64313;51.018;13.742;2023-04-16T09:13:50;99854.91;;;10.02;76.20
75699;BME280;64313;51.018;13.742;2023-04-16T09:16:15;99857.25;;;10.11;75.99
75699;BME280;64313;51.018;13.742;2023-04-16T09:18:41;99852.97;;;10.17;75.50
75699;BME280;64313;51.018;13.742;2023-04-16T09:21:08;99850.75;;;10.21;75.51
75699;BME280;64313;51.018;13.742;2023-04-16T09:23:36;99856.53;;;10.24;75.83
75699;BME280;64313;51.018;13.742;2023-04-16T09:26:03;99860.66;;;10.27;75.95
75699;BME280;64313;51.018;13.742;2023-04-16T09:28:43;99858.44;;;10.30;75.84
75699;BME280;64313;51.018;13.742;2023-04-16T09:31:17;99865.13;;;10.41;74.43
75699;BME280;64313;51.018;13.742;2023-04-16T09:33:59;99866.44;;;10.52;74.60
75699;BME280;64313;51.018;13.742;2023-04-16T09:36:25;99860.69;;;10.55;73.45
75699;BME280;64313;51.018;13.742;2023-04-16T09:38:52;99866.72;;;10.64;72.72
75699;BME280;64313;51.018;13.742;2023-04-16T09:41:18;99868.38;;;10.65;73.47
75699;BME280;64313;51.018;13.742;2023-04-16T09:43:57;99866.13;;;10.68;73.51
75699;BME280;64313;51.018;13.742;2023-04-16T09:46:29;99874.19;;;10.75;73.00
75699;BME280;64313;51.018;13.742;2023-04-16T09:48:56;99873.41;;;10.81;73.63
75699;BME280;64313;51.018;13.742;2023-04-16T09:51:21;99872.38;;;10.82;73.83
75699;BME280;64313;51.018;13.742;2023-04-16T09:53:50;99874.47;;;10.87;72.93
75699;BME280;64313;51.018;13.742;2023-04-16T09:56:16;99881.91;;;10.91;73.24
75699;BME280;64313;51.018;13.742;2023-04-16T09:58:42;99880.69;;;10.94;72.81
75699;BME280;64313;51.018;13.742;2023-04-16T10:01:09;99880.06;;;10.98;72.64
75699;BME280;64313;51.018;13.742;2023-04-16T10:03:37;99881.75;;;10.99;72.44
75699;BME280;64313;51.018;13.742;2023-04-16T10:06:07;99889.53;;;11.01;72.41
75699;BME280;64313;51.018;13.742;2023-04-16T10:08:42;99883.59;;;11.05;71.67
75699;BME280;64313;51.018;13.742;2023-04-16T10:11:07;99889.59;;;11.08;72.14
75699;BME280;64313;51.018;13.742;2023-04-16T10:13:32;99878.50;;;11.11;72.67
75699;BME280;64313;51.018;13.742;2023-04-16T10:15:58;99882.19;;;11.10;72.40
75699;BME280;64313;51.018;13.742;2023-04-16T10:18:24;99883.84;;;11.11;72.78
75699;BME280;64313;51.018;13.742;2023-04-16T10:20:49;99884.06;;;11.09;72.61
75699;BME280;64313;51.018;13.742;2023-04-16T10:23:16;99880.34;;;11.10;72.44
75699;BME280;64313;51.018;13.742;2023-04-16T10:25:41;99891.88;;;11.11;72.68
75699;BME280;64313;51.018;13.742;2023-04-16T10:28:08;99888.81;;;11.14;70.74
75699;BME280;64313;51.018;13.742;2023-04-16T10:30:34;99894.59;;;11.17;71.14
75699;BME280;64313;51.018;13.742;2023-04-16T10:33:02;99888.00;;;11.20;71.94
75699;BME280;64313;51.018;13.742;2023-04-16T10:35:29;99885.97;;;11.22;72.05
75699;BME280;64313;51.018;13.742;2023-04-16T10:38:21;99888.88;;;11.27;72.23
75699;BME280;64313;51.018;13.742;2023-04-16T10:40:47;99884.97;;;11.30;71.91
75699;BME280;64313;51.018;13.742;2023-04-16T10:43:16;99888.88;;;11.34;69.67
75699;BME280;64313;51.018;13.742;2023-04-16T10:45:42;99886.63;;;11.37;70.31
75699;BME280;64313;51.018;13.742;2023-04-16T10:48:07;99892.00;;;11.37;69.87
75699;BME280;64313;51.018;13.742;2023-04-16T10:50:37;99890.78;;;11.40;69.96
75699;BME280;64313;51.018;13.742;2023-04-16T10:53:23;99894.91;;;11.42;70.88
75699;BME280;64313;51.018;13.742;2023-04-16T10:56:21;99892.44;;;11.47;68.73
75699;BME280;64313;51.018;13.742;2023-04-16T10:58:46;99895.34;;;11.53;68.85
75699;BME280;64313;51.018;13.742;2023-04-16T11:01:13;99895.56;;;11.58;68.55
75699;BME280;64313;51.018;13.742;2023-04-16T11:03:41;99892.88;;;11.58;67.84
75699;BME280;64313;51.018;13.742;2023-04-16T11:08:38;99893.72;;;11.65;66.50
75699;BME280;64313;51.018;13.742;2023-04-16T11:11:04;99892.50;;;11.67;67.62
75699;BME280;64313;51.018;13.742;2023-04-16T11:13:30;99889.22;;;11.72;68.58
75699;BME280;64313;51.018;13.742;2023-04-16T11:15:57;99894.81;;;11.77;67.06
75699;BME280;64313;51.018;13.742;2023-04-16T11:18:23;99898.31;;;11.84;65.99
75699;BME280;64313;51.018;13.742;2023-04-16T11:20:49;99896.88;;;11.82;67.52
75699;BME280;64313;51.018;13.742;2023-04-16T11:23:15;99896.09;;;11.88;65.88
75699;BME280;64313;51.018;13.742;2023-04-16T11:25:40;99900.84;;;11.93;64.99
75699;BME280;64313;51.018;13.742;2023-04-16T11:28:06;99897.13;;;11.94;64.48
75699;BME280;64313;51.018;13.742;2023-04-16T11:30:33;99897.31;;;11.99;64.68
75699;BME280;64313;51.018;13.742;2023-04-16T11:33:05;99901.88;;;12.05;63.18
75699;BME280;64313;51.018;13.742;2023-04-16T11:35:31;99897.75;;;12.09;63.48
75699;BME280;64313;51.018;13.742;2023-04-16T11:37:57;99894.69;;;12.12;63.47
75699;BME280;64313;51.018;13.742;2023-04-16T11:40:23;99900.44;;;12.16;63.23
75699;BME280;64313;51.018;13.742;2023-04-16T11:42:49;99897.13;;;12.13;63.92
75699;BME280;64313;51.018;13.742;2023-04-16T11:45:14;99903.94;;;12.16;64.11
75699;BME280;64313;51.018;13.742;2023-04-16T11:47:50;99896.94;;;12.22;63.28
75699;BME280;64313;51.018;13.742;2023-04-16T11:50:25;99893.88;;;12.25;62.84
75699;BME280;64313;51.018;13.742;2023-04-16T11:52:52;99893.66;;;12.26;63.55
75699;BME280;64313;51.018;13.742;2023-04-16T11:55:18;99898.00;;;12.27;62.82
75699;BME280;64313;51.018;13.742;2023-04-16T11:57:44;99890.53;;;12.29;60.99
75699;BME280;64313;51.018;13.742;2023-04-16T12:00:10;99884.16;;;12.30;63.60
75699;BME280;64313;51.018;13.742;2023-04-16T12:02:49;99896.34;;;12.33;62.26
75699;BME280;64313;51.018;13.742;2023-04-16T12:05:35;99894.66;;;12.32;61.87
75699;BME280;64313;51.018;13.742;2023-04-16T12:08:04;99887.66;;;12.31;62.16
75699;BME280;64313;51.018;13.742;2023-04-16T12:10:32;99892.22;;;12.30;62.15
75699;BME280;64313;51.018;13.742;2023-04-16T12:13:10;99896.97;;;12.35;61.88
75699;BME280;64313;51.018;13.742;2023-04-16T12:15:50;99890.13;;;12.39;60.37
75699;BME280;64313;51.018;13.742;2023-04-16T12:18:17;99888.28;;;12.40;61.11
75699;BME280;64313;51.018;13.742;2023-04-16T12:20:43;99894.25;;;12.42;61.06
75699;BME280;64313;51.018;13.742;2023-04-16T12:23:09;99898.38;;;12.44;61.84
75699;BME280;64313;51.018;13.742;2023-04-16T12:25:35;99894.06;;;12.43;58.37
75699;BME280;64313;51.018;13.742;2023-04-16T12:28:01;99891.78;;;12.47;58.99
75699;BME280;64313;51.018;13.742;2023-04-16T12:30:27;99899.84;;;12.53;59.04
75699;BME280;64313;51.018;13.742;2023-04-16T12:33:12;99897.53;;;12.57;59.51
75699;BME280;64313;51.018;13.742;2023-04-16T12:35:38;99902.28;;;12.62;60.15
75699;BME280;64313;51.018;13.742;2023-04-16T12:38:06;99892.00;;;12.65;60.03
75699;BME280;64313;51.018;13.742;2023-04-16T12:40:32;99892.78;;;12.72;58.82
75699;BME280;64313;51.018;13.742;2023-04-16T12:42:58;99892.59;;;12.81;57.91
75699;BME280;64313;51.018;13.742;2023-04-16T12:45:23;99890.72;;;12.88;58.48
75699;BME280;64313;51.018;13.742;2023-04-16T12:47:49;99890.47;;;12.89;56.49
75699;BME280;64313;51.018;13.742;2023-04-16T12:50:14;99888.22;;;12.93;57.10
75699;BME280;64313;51.018;13.742;2023-04-16T12:52:40;99881.63;;;12.95;56.67
75699;BME280;64313;51.018;13.742;2023-04-16T12:55:07;99886.31;;;13.00;57.74
75699;BME280;64313;51.018;13.742;2023-04-16T12:57:32;99888.59;;;13.03;58.11
75699;BME280;64313;51.018;13.742;2023-04-16T12:59:58;99879.31;;;13.06;58.73
75699;BME280;64313;51.018;13.742;2023-04-16T13:02:23;99887.56;;;13.04;59.95